createdAt,value
2022-10-05T00:02:46.570Z,6.28
2022-10-05T00:05:49.631Z,5.90
2022-10-05T00:08:51.718Z,5.62
2022-10-05T00:11:54.114Z,5.40
2022-10-05T00:15:02.599Z,5.00
2022-10-05T00:18:13.223Z,5.68
2022-10-05T00:21:22.848Z,4.82
2022-10-05T00:24:25.296Z,4.60
2022-10-05T00:27:37.488Z,4.60
2022-10-05T00:30:40.014Z,4.97
2022-10-05T00:33:42.194Z,4.15
2022-10-05T00:36:45.800Z,4.20
2022-10-05T00:39:49.538Z,4.37
2022-10-05T00:42:58.948Z,4.20
2022-10-05T00:46:24.464Z,4.00
2022-10-05T00:49:49.414Z,4.53
2022-10-05T00:53:29.677Z,3.92
2022-10-05T00:59:42.865Z,3.85
2022-10-05T01:03:01.395Z,4.50
2022-10-05T01:06:44.683Z,4.00
2022-10-05T01:10:11.958Z,3.92
2022-10-05T01:13:19.853Z,3.75
2022-10-05T01:16:31.045Z,3.37
2022-10-05T01:19:51.857Z,3.95
2022-10-05T01:23:09.412Z,3.97
2022-10-05T01:26:48.753Z,3.65
2022-10-05T01:30:06.957Z,3.80
2022-10-05T01:33:31.842Z,4.55
2022-10-05T01:36:48.412Z,4.03
2022-10-05T01:40:08.300Z,3.72
2022-10-05T01:43:18.551Z,3.28
2022-10-05T01:46:33.693Z,3.37
2022-10-05T01:49:44.302Z,3.85
2022-10-05T01:53:12.053Z,3.60
2022-10-05T01:56:39.615Z,3.10
2022-10-05T02:00:03.881Z,3.80
2022-10-05T02:03:24.573Z,3.00
2022-10-05T02:06:32.269Z,3.05
2022-10-05T02:09:42.124Z,3.80
2022-10-05T02:12:48.959Z,3.50
2022-10-05T02:15:57.952Z,3.75
2022-10-05T02:19:20.980Z,2.95
2022-10-05T02:22:29.618Z,3.30
2022-10-05T02:25:37.049Z,3.37
2022-10-05T02:28:52.499Z,3.40
2022-10-05T02:32:00.134Z,2.90
2022-10-05T02:35:14.114Z,3.50
2022-10-05T02:38:24.879Z,3.30
2022-10-05T02:41:50.441Z,3.40
2022-10-05T02:45:26.284Z,3.25
2022-10-05T02:48:52.462Z,3.33
2022-10-05T02:52:08.358Z,3.10
2022-10-05T02:55:19.260Z,3.35
2022-10-05T02:58:25.836Z,3.05
2022-10-05T03:01:37.750Z,2.97
2022-10-05T03:04:48.714Z,3.72
2022-10-05T03:08:19.532Z,3.10
2022-10-05T03:11:40.914Z,2.90
2022-10-05T03:14:57.732Z,3.92
2022-10-05T03:18:27.413Z,2.85
2022-10-05T03:21:53.650Z,3.05
2022-10-05T03:25:18.311Z,3.35
2022-10-05T03:28:37.347Z,3.50
2022-10-05T03:31:58.834Z,2.67
2022-10-05T03:35:27.831Z,2.72
2022-10-05T03:38:53.783Z,3.17
2022-10-05T03:42:26.613Z,2.95
2022-10-05T03:46:04.121Z,2.55
2022-10-05T03:49:17.072Z,3.30
2022-10-05T03:52:28.241Z,3.45
2022-10-05T03:55:36.082Z,2.80
2022-10-05T03:58:50.644Z,2.95
2022-10-05T04:01:58.915Z,3.55
2022-10-05T04:05:10.701Z,2.80
2022-10-05T04:08:48.466Z,3.05
2022-10-05T04:12:12.628Z,3.10
2022-10-05T04:15:41.434Z,2.75
2022-10-05T04:19:06.060Z,2.85
2022-10-05T04:22:32.630Z,2.33
2022-10-05T04:25:42.336Z,3.17
2022-10-05T04:29:03.619Z,3.42
2022-10-05T04:32:15.546Z,2.90
2022-10-05T04:35:28.651Z,3.55
2022-10-05T04:39:09.812Z,4.45
2022-10-05T04:42:17.921Z,4.30
2022-10-05T04:45:32.677Z,4.25
2022-10-05T04:49:03.023Z,4.28
2022-10-05T04:52:24.552Z,3.58
2022-10-05T04:55:58.369Z,4.03
2022-10-05T04:59:36.247Z,4.05
2022-10-05T05:02:48.182Z,3.37
2022-10-05T05:06:17.477Z,3.08
2022-10-05T05:09:33.322Z,3.58
2022-10-05T05:13:18.755Z,3.55
2022-10-05T05:16:40.693Z,4.00
2022-10-05T05:20:19.773Z,3.47
2022-10-05T05:23:51.188Z,4.55
2022-10-05T05:27:13.780Z,3.58
2022-10-05T05:30:35.275Z,4.03
2022-10-05T05:34:13.414Z,4.45
2022-10-05T05:38:10.008Z,4.45
2022-10-05T05:41:39.509Z,4.90
2022-10-05T05:44:49.070Z,4.10
2022-10-05T05:47:54.764Z,4.15
2022-10-05T05:51:08.266Z,4.60
2022-10-05T05:54:29.455Z,4.57
2022-10-05T05:57:41.135Z,4.45
2022-10-05T06:01:30.670Z,5.00
2022-10-05T06:04:50.985Z,5.53
2022-10-05T06:07:55.137Z,5.87
2022-10-05T06:11:21.879Z,5.18
2022-10-05T06:14:43.583Z,5.18
2022-10-05T06:17:52.684Z,5.12
2022-10-05T06:21:01.717Z,5.53
2022-10-05T06:24:10.050Z,5.00
2022-10-05T06:27:23.991Z,5.07
2022-10-05T06:30:37.543Z,5.45
2022-10-05T06:33:54.653Z,4.78
2022-10-05T06:37:17.505Z,4.47
2022-10-05T06:40:33.413Z,4.95
2022-10-05T06:43:56.606Z,5.12
2022-10-05T06:47:13.274Z,4.47
2022-10-05T06:50:39.830Z,4.90
2022-10-05T06:54:03.994Z,6.03
2022-10-05T06:57:44.643Z,6.07
2022-10-05T07:04:08.991Z,5.05
2022-10-05T07:07:32.523Z,5.35
2022-10-05T07:11:10.704Z,5.65
2022-10-05T07:14:31.344Z,6.50
2022-10-05T07:17:49.629Z,6.30
2022-10-05T07:21:22.033Z,6.80
2022-10-05T07:24:41.189Z,6.12
2022-10-05T07:28:00.564Z,6.50
2022-10-05T07:34:15.274Z,6.55
2022-10-05T07:37:45.366Z,8.05
2022-10-05T07:44:17.028Z,6.15
2022-10-05T07:47:36.225Z,7.43
2022-10-05T07:50:46.801Z,7.18
2022-10-05T07:54:03.456Z,6.72
2022-10-05T07:57:26.052Z,7.28
2022-10-05T08:01:00.585Z,7.18
2022-10-05T08:04:13.862Z,6.80
2022-10-05T08:07:17.402Z,10.02
2022-10-05T08:10:37.459Z,7.35
2022-10-05T08:13:51.347Z,7.97
2022-10-05T08:16:58.309Z,9.45
2022-10-05T08:20:10.102Z,8.43
2022-10-05T08:23:38.627Z,7.90
2022-10-05T08:26:47.001Z,8.30
2022-10-05T08:33:14.653Z,9.55
2022-10-05T08:36:27.164Z,10.18
2022-10-05T08:39:40.244Z,11.12
2022-10-05T08:42:54.725Z,10.82
2022-10-05T08:46:21.664Z,10.57
2022-10-05T08:49:46.920Z,7.70
2022-10-05T08:53:26.896Z,8.40
2022-10-05T09:00:00.553Z,8.15
2022-10-05T09:03:34.189Z,7.70
2022-10-05T09:06:50.804Z,7.80
2022-10-05T09:10:22.685Z,7.20
2022-10-05T09:14:11.980Z,6.50
2022-10-05T09:17:39.127Z,7.03
2022-10-05T09:20:50.789Z,6.37
2022-10-05T09:24:14.240Z,5.68
2022-10-05T09:27:20.320Z,6.60
2022-10-05T09:30:43.830Z,6.57
2022-10-05T09:34:00.963Z,5.05
2022-10-05T09:37:22.444Z,6.18
2022-10-05T09:41:04.149Z,5.78
2022-10-05T09:44:31.523Z,5.43
2022-10-05T09:48:11.027Z,5.43
2022-10-05T09:51:58.624Z,5.40
2022-10-05T09:55:29.490Z,5.15
2022-10-05T09:59:10.930Z,5.45
2022-10-05T10:02:38.774Z,5.20
2022-10-05T10:06:11.542Z,6.03
2022-10-05T10:09:38.730Z,5.30
2022-10-05T10:13:13.847Z,5.37
2022-10-05T10:16:32.456Z,4.95
2022-10-05T10:19:52.600Z,4.65
2022-10-05T10:23:14.425Z,5.37
2022-10-05T10:26:35.572Z,5.25
2022-10-05T10:29:49.986Z,4.53
2022-10-05T10:33:30.237Z,4.80
2022-10-05T10:39:57.179Z,4.22
2022-10-05T10:43:18.214Z,4.15
2022-10-05T10:46:47.815Z,3.78
2022-10-05T10:50:26.257Z,4.43
2022-10-05T10:53:48.439Z,4.50
2022-10-05T10:56:59.111Z,5.00
2022-10-05T11:00:23.342Z,4.68
2022-10-05T11:03:31.238Z,5.43
2022-10-05T11:06:45.900Z,5.53
2022-10-05T11:09:56.732Z,6.20
2022-10-05T11:13:24.881Z,6.80
2022-10-05T11:16:34.453Z,6.85
2022-10-05T11:20:06.775Z,7.35
2022-10-05T11:23:44.866Z,8.10
2022-10-05T11:27:05.945Z,6.80
2022-10-05T11:30:14.085Z,7.70
2022-10-05T11:36:33.243Z,6.72
2022-10-05T11:39:55.269Z,7.18
2022-10-05T11:43:09.587Z,6.75
2022-10-05T11:46:30.040Z,6.72
2022-10-05T11:49:58.161Z,6.45
2022-10-05T11:53:11.169Z,6.10
2022-10-05T11:56:36.037Z,6.03
2022-10-05T11:59:49.172Z,5.35
2022-10-05T12:03:28.757Z,5.03
2022-10-05T12:10:16.811Z,3.60
2022-10-05T12:13:33.593Z,4.35
2022-10-05T12:16:55.553Z,4.30
2022-10-05T12:20:02.732Z,4.93
2022-10-05T12:23:25.622Z,5.25
2022-10-05T12:26:35.240Z,4.35
2022-10-05T12:29:55.785Z,4.15
2022-10-05T12:33:17.003Z,3.40
2022-10-05T12:36:46.252Z,2.92
2022-10-05T12:40:13.455Z,2.40
2022-10-05T12:43:33.411Z,2.72
2022-10-05T12:47:06.043Z,2.00
2022-10-05T12:50:20.362Z,2.03
2022-10-05T12:53:52.621Z,1.37
2022-10-05T12:56:59.207Z,1.27
2022-10-05T13:00:23.166Z,1.60
2022-10-05T13:03:33.446Z,1.48
2022-10-05T13:06:52.978Z,1.45
2022-10-05T13:09:59.469Z,1.58
2022-10-05T13:13:37.337Z,2.50
2022-10-05T13:16:45.697Z,2.12
2022-10-05T13:19:57.552Z,1.73
2022-10-05T13:23:18.274Z,1.73
2022-10-05T13:26:46.061Z,1.80
2022-10-05T13:29:54.175Z,1.55
2022-10-05T13:33:45.077Z,1.50
2022-10-05T13:40:13.360Z,1.52
2022-10-05T13:43:38.822Z,1.50
2022-10-05T13:46:57.189Z,1.83
2022-10-05T13:50:15.103Z,1.97
2022-10-05T13:53:36.702Z,1.98
2022-10-05T13:56:48.408Z,1.90
2022-10-05T13:59:58.082Z,3.92
2022-10-05T14:03:03.568Z,2.20
2022-10-05T14:06:15.183Z,2.12
2022-10-05T14:09:22.580Z,1.92
2022-10-05T14:12:26.564Z,2.35
2022-10-05T14:15:33.119Z,2.53
2022-10-05T14:18:38.096Z,2.22
2022-10-05T14:21:50.167Z,2.22
2022-10-05T14:25:08.479Z,2.65
2022-10-05T14:28:32.110Z,2.60
2022-10-05T14:31:36.929Z,2.22
2022-10-05T14:34:45.180Z,2.33
2022-10-05T14:37:53.959Z,2.80
2022-10-05T14:44:15.341Z,2.78
2022-10-05T14:47:23.387Z,2.90
2022-10-05T14:53:56.212Z,2.15
2022-10-05T14:57:04.727Z,2.55
2022-10-05T15:00:13.386Z,2.35
2022-10-05T15:03:21.676Z,2.30
2022-10-05T15:06:37.087Z,2.72
2022-10-05T15:10:07.538Z,2.50
2022-10-05T15:13:20.395Z,2.58
2022-10-05T15:16:39.086Z,2.00
2022-10-05T15:20:00.184Z,2.03
2022-10-05T15:23:26.779Z,2.80
2022-10-05T15:26:47.075Z,2.70
2022-10-05T15:29:59.644Z,2.87
2022-10-05T15:33:12.929Z,2.72
2022-10-05T15:36:22.091Z,2.95
2022-10-05T15:40:01.276Z,2.67
2022-10-05T15:43:11.147Z,2.72
2022-10-05T15:46:18.967Z,3.10
2022-10-05T15:49:33.066Z,2.95
2022-10-05T15:52:50.605Z,3.28
2022-10-05T15:56:07.187Z,3.25
2022-10-05T15:59:25.256Z,2.80
2022-10-05T16:02:37.701Z,2.80
2022-10-05T16:06:13.229Z,3.45
2022-10-05T16:09:44.111Z,3.67
2022-10-05T16:13:05.519Z,3.62
2022-10-05T16:16:33.789Z,4.30
2022-10-05T16:19:51.536Z,4.15
2022-10-05T16:23:06.265Z,4.50
2022-10-05T16:26:15.051Z,4.10
2022-10-05T16:32:46.760Z,4.70
2022-10-05T16:36:06.536Z,3.78
2022-10-05T16:39:21.166Z,5.22
2022-10-05T16:42:38.816Z,4.18
2022-10-05T16:45:53.677Z,5.18
2022-10-05T16:49:15.352Z,4.97
2022-10-05T16:52:21.742Z,4.97
2022-10-05T16:55:37.218Z,5.07
2022-10-05T16:58:47.769Z,4.32
2022-10-05T17:02:17.783Z,4.97
2022-10-05T17:05:38.705Z,4.68
2022-10-05T17:09:29.351Z,5.12
2022-10-05T17:12:53.394Z,4.37
2022-10-05T17:16:07.779Z,4.75
2022-10-05T17:19:29.215Z,4.43
2022-10-05T17:22:39.675Z,4.22
2022-10-05T17:25:55.611Z,5.07
2022-10-05T17:29:08.884Z,4.53
2022-10-05T17:32:30.396Z,4.65
2022-10-05T17:35:58.211Z,5.10
2022-10-05T17:39:15.270Z,6.07
2022-10-05T17:42:26.277Z,7.18
2022-10-05T17:45:32.074Z,7.55
2022-10-05T17:48:42.772Z,6.12
2022-10-05T17:52:04.397Z,7.30
2022-10-05T17:55:38.338Z,6.60
2022-10-05T17:58:43.798Z,9.38
2022-10-05T18:02:20.867Z,9.52
2022-10-05T18:05:29.139Z,9.27
2022-10-05T18:08:37.851Z,9.75
2022-10-05T18:11:43.004Z,10.57
2022-10-05T18:15:00.572Z,10.82
2022-10-05T18:18:54.593Z,10.70
2022-10-05T18:22:02.686Z,10.13
2022-10-05T18:25:27.439Z,9.68
2022-10-05T18:29:13.658Z,9.00
2022-10-05T18:32:22.922Z,9.32
2022-10-05T18:35:39.354Z,8.95
2022-10-05T18:39:06.368Z,8.35
2022-10-05T18:42:14.792Z,7.82
2022-10-05T18:48:39.015Z,8.65
2022-10-05T18:52:00.612Z,8.25
2022-10-05T18:55:16.816Z,8.27
2022-10-05T18:58:26.501Z,8.20
2022-10-05T19:01:46.179Z,8.60
2022-10-05T19:08:58.736Z,8.40
2022-10-05T19:12:32.703Z,8.50
2022-10-05T19:15:50.394Z,8.18
2022-10-05T19:19:29.361Z,9.35
2022-10-05T19:23:05.302Z,8.75
2022-10-05T19:26:15.749Z,8.18
2022-10-05T19:29:55.108Z,7.97
2022-10-05T19:33:28.328Z,9.05
2022-10-05T19:36:59.176Z,7.90
2022-10-05T19:40:21.773Z,8.40
2022-10-05T19:43:38.566Z,9.50
2022-10-05T19:46:47.456Z,8.75
2022-10-05T19:49:58.891Z,7.45
2022-10-05T19:53:31.405Z,9.15
2022-10-05T19:56:45.731Z,8.65
2022-10-05T19:59:48.978Z,8.07
2022-10-05T20:03:07.906Z,9.45
2022-10-05T20:06:11.232Z,8.35
2022-10-05T20:09:21.528Z,8.48
2022-10-05T20:12:51.884Z,8.85
2022-10-05T20:16:31.148Z,8.38
2022-10-05T20:19:52.094Z,7.55
2022-10-05T20:23:20.543Z,8.63
2022-10-05T20:27:06.443Z,7.93
2022-10-05T20:30:11.866Z,8.23
2022-10-05T20:33:16.259Z,7.82
2022-10-05T20:36:18.529Z,7.65
2022-10-05T20:39:21.458Z,8.07
2022-10-05T20:42:45.773Z,7.32
2022-10-05T20:45:48.362Z,7.47
2022-10-05T20:48:52.581Z,7.30
2022-10-05T20:51:55.963Z,7.37
2022-10-05T20:54:58.928Z,6.93
2022-10-05T20:58:03.888Z,7.30
2022-10-05T21:01:26.769Z,7.45
2022-10-05T21:04:43.082Z,7.80
2022-10-05T21:07:45.495Z,7.18
2022-10-05T21:10:48.240Z,7.00
2022-10-05T21:13:51.555Z,7.45
2022-10-05T21:16:54.264Z,7.55
2022-10-05T21:19:56.745Z,7.03
2022-10-05T21:23:02.396Z,6.53
2022-10-05T21:26:08.032Z,7.57
2022-10-05T21:29:12.710Z,7.20
2022-10-05T21:32:16.682Z,7.03
2022-10-05T21:35:19.234Z,6.65
2022-10-05T21:38:21.667Z,6.95
2022-10-05T21:41:24.189Z,6.70
2022-10-05T21:44:26.485Z,6.82
2022-10-05T21:47:29.277Z,6.47
2022-10-05T21:50:32.826Z,5.93
2022-10-05T21:53:41.107Z,6.70
2022-10-05T21:56:46.587Z,6.45
2022-10-05T21:59:50.513Z,6.53
2022-10-05T22:02:52.736Z,5.97
2022-10-05T22:05:55.597Z,6.22
2022-10-05T22:08:59.582Z,5.68
2022-10-05T22:12:03.505Z,6.07
2022-10-05T22:15:07.138Z,6.12
2022-10-05T22:18:17.052Z,6.37
2022-10-05T22:21:21.239Z,6.28
2022-10-05T22:24:23.920Z,7.57
2022-10-05T22:27:29.330Z,7.32
2022-10-05T22:30:35.820Z,6.57
2022-10-05T22:33:38.896Z,6.00
2022-10-05T22:36:42.254Z,6.37
2022-10-05T22:39:45.754Z,5.85
2022-10-05T22:42:48.580Z,6.20
2022-10-05T22:45:52.452Z,5.35
2022-10-05T22:48:55.024Z,6.35
2022-10-05T22:51:57.390Z,6.18
2022-10-05T22:55:02.427Z,5.55
2022-10-05T22:58:04.708Z,6.47
2022-10-05T23:01:12.319Z,6.15
2022-10-05T23:04:14.577Z,6.80
2022-10-05T23:07:17.168Z,6.32
2022-10-05T23:10:19.535Z,6.43
2022-10-05T23:13:22.522Z,7.20
2022-10-05T23:16:27.103Z,7.85
2022-10-05T23:19:29.793Z,8.82
2022-10-05T23:22:35.654Z,8.27
2022-10-05T23:25:38.666Z,8.55
2022-10-05T23:28:46.584Z,7.90
2022-10-05T23:31:49.882Z,7.85
2022-10-05T23:34:52.092Z,7.95
2022-10-05T23:37:54.712Z,7.45
2022-10-05T23:40:59.848Z,7.12
2022-10-05T23:44:02.726Z,7.47
2022-10-05T23:47:05.056Z,6.80
2022-10-05T23:50:09.271Z,6.35
2022-10-05T23:53:11.653Z,6.68
2022-10-05T23:56:14.416Z,6.65
2022-10-05T23:59:16.881Z,7.28
